createdAt,value
2022-11-10T00:00:42.936Z,95918.28
2022-11-10T00:03:10.033Z,95924.19
2022-11-10T00:05:37.522Z,95928.25
2022-11-10T00:08:05.314Z,95930.25
2022-11-10T00:10:31.897Z,95937.28
2022-11-10T00:13:02.104Z,95940.88
2022-11-10T00:15:51.674Z,95945.88
2022-11-10T00:18:18.078Z,95946.25
2022-11-10T00:20:44.471Z,95950.72
2022-11-10T00:23:10.826Z,95953.72
2022-11-10T00:25:37.212Z,95954.25
2022-11-10T00:28:03.655Z,95961.91
2022-11-10T00:30:30.042Z,95965.94
2022-11-10T00:32:56.413Z,95965.66
2022-11-10T00:35:22.876Z,95972.28
2022-11-10T00:37:50.777Z,95968.19
2022-11-10T00:40:17.364Z,95975.69
2022-11-10T00:42:43.800Z,95972.66
2022-11-10T00:45:10.348Z,95975.13
2022-11-10T00:47:36.804Z,95971.13
2022-11-10T00:50:03.226Z,95970.47
2022-11-10T00:52:29.595Z,95972.66
2022-11-10T00:54:55.969Z,95974.22
2022-11-10T00:57:22.358Z,95975.75
2022-11-10T00:59:48.795Z,95971.03
2022-11-10T01:02:15.215Z,95977.22
2022-11-10T01:04:41.584Z,95972.31
2022-11-10T01:07:08.060Z,95979.94
2022-11-10T01:09:34.492Z,95980.31
2022-11-10T01:12:00.888Z,95991.22
2022-11-10T01:14:27.261Z,95981.03
2022-11-10T01:16:53.703Z,95982.69
2022-11-10T01:19:20.086Z,95975.75
2022-11-10T01:21:46.442Z,95977.78
2022-11-10T01:24:12.853Z,95979.78
2022-11-10T01:26:39.259Z,95978.88
2022-11-10T01:29:05.640Z,95975.94
2022-11-10T01:31:32.147Z,95975.84
2022-11-10T01:33:59.098Z,95977.38
2022-11-10T01:36:25.463Z,95979.34
2022-11-10T01:38:51.847Z,95986.97
2022-11-10T01:41:18.422Z,95985.72
2022-11-10T01:43:44.870Z,95975.53
2022-11-10T01:46:12.352Z,95984.25
2022-11-10T01:48:44.740Z,95987.03
2022-11-10T01:51:30.024Z,95984.41
2022-11-10T01:53:58.780Z,95986.41
2022-11-10T01:56:26.351Z,95994.66
2022-11-10T01:58:58.652Z,95998.13
2022-11-10T02:01:25.339Z,96000.88
2022-11-10T02:03:51.685Z,95990.84
2022-11-10T02:06:19.944Z,95992.13
2022-11-10T02:08:47.047Z,95991.13
2022-11-10T02:11:13.620Z,95995.59
2022-11-10T02:13:40.205Z,96003.81
2022-11-10T02:16:06.807Z,96002.81
2022-11-10T02:18:33.171Z,96011.19
2022-11-10T02:20:59.577Z,96014.00
2022-11-10T02:23:33.593Z,96003.81
2022-11-10T02:26:00.108Z,96006.09
2022-11-10T02:28:27.197Z,96005.75
2022-11-10T02:30:53.914Z,96009.00
2022-11-10T02:33:21.186Z,96014.44
2022-11-10T02:35:47.796Z,96019.25
2022-11-10T02:38:14.366Z,96009.06
2022-11-10T02:40:40.990Z,96024.84
2022-11-10T02:43:09.520Z,96007.91
2022-11-10T02:45:35.896Z,96014.09
2022-11-10T02:48:02.323Z,96028.34
2022-11-10T02:50:28.689Z,96026.00
2022-11-10T02:52:55.061Z,96031.72
2022-11-10T02:55:21.420Z,96031.53
2022-11-10T02:57:47.801Z,96025.63
2022-11-10T03:00:14.278Z,96028.25
2022-11-10T03:02:40.658Z,96026.91
2022-11-10T03:05:07.172Z,96024.56
2022-11-10T03:07:33.577Z,96029.50
2022-11-10T03:09:59.950Z,96028.66
2022-11-10T03:12:26.342Z,96042.00
2022-11-10T03:14:52.710Z,96028.47
2022-11-10T03:17:19.352Z,96033.38
2022-11-10T03:19:45.786Z,96038.03
2022-11-10T03:22:12.172Z,96025.50
2022-11-10T03:24:38.605Z,96025.59
2022-11-10T03:27:04.964Z,96031.31
2022-11-10T03:29:31.333Z,96043.13
2022-11-10T03:31:57.773Z,96048.38
2022-11-10T03:34:27.038Z,96037.47
2022-11-10T03:36:57.111Z,96033.13
2022-11-10T03:39:24.422Z,96038.03
2022-11-10T03:41:50.853Z,96048.56
2022-11-10T03:44:17.226Z,96035.84
2022-11-10T03:46:43.703Z,96044.19
2022-11-10T03:49:10.098Z,96058.00
2022-11-10T03:51:36.594Z,96064.56
2022-11-10T03:54:03.133Z,96063.28
2022-11-10T03:56:29.554Z,96062.91
2022-11-10T03:58:55.924Z,96059.66
2022-11-10T04:01:23.831Z,96069.00
2022-11-10T04:03:51.607Z,96067.66
2022-11-10T04:06:37.311Z,96063.44
2022-11-10T04:09:04.539Z,96059.09
2022-11-10T04:11:50.554Z,96074.19
2022-11-10T04:14:35.484Z,96068.72
2022-11-10T04:17:02.380Z,96064.91
2022-11-10T04:19:29.820Z,96070.16
2022-11-10T04:21:56.280Z,96068.16
2022-11-10T04:24:22.660Z,96075.69
2022-11-10T04:26:49.632Z,96069.44
2022-11-10T04:29:17.653Z,96077.53
2022-11-10T04:32:02.579Z,96081.97
2022-11-10T04:34:28.992Z,96087.50
2022-11-10T04:36:55.377Z,96091.44
2022-11-10T04:39:21.787Z,96099.53
2022-11-10T04:41:48.839Z,96098.31
2022-11-10T04:44:15.233Z,96098.97
2022-11-10T04:46:42.663Z,96091.06
2022-11-10T04:49:10.311Z,96092.22
2022-11-10T04:51:38.486Z,96094.25
2022-11-10T04:54:05.829Z,96095.69
2022-11-10T04:56:32.264Z,96100.31
2022-11-10T04:58:58.681Z,96102.41
2022-11-10T05:01:26.819Z,96107.31
2022-11-10T05:03:53.851Z,96113.03
2022-11-10T05:06:20.543Z,96109.03
2022-11-10T05:08:47.617Z,96117.50
2022-11-10T05:11:14.333Z,96117.50
2022-11-10T05:13:40.782Z,96125.22
2022-11-10T05:16:07.725Z,96119.56
2022-11-10T05:18:34.147Z,96116.59
2022-11-10T05:21:00.514Z,96121.66
2022-11-10T05:23:39.221Z,96119.81
2022-11-10T05:26:10.386Z,96118.66
2022-11-10T05:28:37.192Z,96113.50
2022-11-10T05:31:03.643Z,96117.50
2022-11-10T05:33:30.163Z,96117.94
2022-11-10T05:35:56.616Z,96126.09
2022-11-10T05:38:23.158Z,96139.56
2022-11-10T05:40:49.610Z,96142.47
2022-11-10T05:43:16.274Z,96150.63
2022-11-10T05:45:42.694Z,96144.19
2022-11-10T05:48:09.107Z,96148.25
2022-11-10T05:50:35.507Z,96151.91
2022-11-10T05:53:01.914Z,96156.16
2022-11-10T05:55:28.869Z,96164.25
2022-11-10T05:57:55.886Z,96156.81
2022-11-10T06:00:25.441Z,96168.63
2022-11-10T06:02:57.664Z,96170.06
2022-11-10T06:05:28.316Z,96175.97
2022-11-10T06:07:57.435Z,96183.69
2022-11-10T06:10:24.442Z,96187.63
2022-11-10T06:12:51.084Z,96190.91
2022-11-10T06:15:17.956Z,96198.44
2022-11-10T06:17:44.407Z,96200.06
2022-11-10T06:20:10.878Z,96204.09
2022-11-10T06:22:37.270Z,96202.81
2022-11-10T06:25:03.822Z,96216.44
2022-11-10T06:27:30.233Z,96227.81
2022-11-10T06:29:56.639Z,96231.44
2022-11-10T06:32:23.035Z,96234.06
2022-11-10T06:34:49.464Z,96229.16
2022-11-10T06:37:16.021Z,96227.88
2022-11-10T06:39:42.413Z,96228.25
2022-11-10T06:42:08.802Z,96227.44
2022-11-10T06:44:35.180Z,96237.28
2022-11-10T06:47:01.558Z,96243.34
2022-11-10T06:49:28.009Z,96244.72
2022-11-10T06:51:54.388Z,96247.72
2022-11-10T06:54:20.795Z,96246.44
2022-11-10T06:56:47.177Z,96252.28
2022-11-10T06:59:13.567Z,96262.19
2022-11-10T07:01:39.973Z,96257.38
2022-11-10T07:04:19.399Z,96264.06
2022-11-10T07:06:47.809Z,96268.47
2022-11-10T07:09:14.853Z,96262.16
2022-11-10T07:11:41.259Z,96251.63
2022-11-10T07:14:07.763Z,96256.25
2022-11-10T07:16:34.223Z,96268.47
2022-11-10T07:19:00.656Z,96267.16
2022-11-10T07:21:27.037Z,96265.19
2022-11-10T07:23:53.434Z,96268.09
2022-11-10T07:26:19.838Z,96278.72
2022-11-10T07:28:46.270Z,96271.44
2022-11-10T07:31:12.652Z,96276.81
2022-11-10T07:33:39.061Z,96289.28
2022-11-10T07:36:05.640Z,96288.72
2022-11-10T07:38:32.038Z,96290.16
2022-11-10T07:40:58.545Z,96300.09
2022-11-10T07:43:25.816Z,96306.38
2022-11-10T07:45:53.138Z,96302.38
2022-11-10T07:48:19.814Z,96303.66
2022-11-10T07:50:46.522Z,96303.91
2022-11-10T07:53:14.429Z,96308.44
2022-11-10T07:55:42.114Z,96302.59
2022-11-10T07:58:08.669Z,96305.44
2022-11-10T08:00:35.762Z,96306.06
2022-11-10T08:03:03.091Z,96315.47
2022-11-10T08:05:29.618Z,96308.72
2022-11-10T08:07:56.181Z,96308.34
2022-11-10T08:10:22.615Z,96305.97
2022-11-10T08:12:55.945Z,96298.94
2022-11-10T08:15:22.819Z,96309.94
2022-11-10T08:17:49.477Z,96313.22
2022-11-10T08:20:16.525Z,96298.81
2022-11-10T08:22:43.290Z,96304.88
2022-11-10T08:25:09.766Z,96306.50
2022-11-10T08:27:36.162Z,96311.63
2022-11-10T08:30:02.558Z,96316.88
2022-11-10T08:32:28.964Z,96322.78
2022-11-10T08:34:55.324Z,96320.25
2022-11-10T08:37:21.728Z,96317.47
2022-11-10T08:39:48.109Z,96324.66
2022-11-10T08:42:14.470Z,96322.44
2022-11-10T08:44:40.845Z,96332.63
2022-11-10T08:47:07.240Z,96338.94
2022-11-10T08:49:33.643Z,96338.38
2022-11-10T08:52:00.002Z,96346.94
2022-11-10T08:54:26.397Z,96360.97
2022-11-10T08:56:52.779Z,96357.78
2022-11-10T08:59:19.138Z,96363.31
2022-11-10T09:01:45.563Z,96375.53
2022-11-10T09:04:11.981Z,96370.25
2022-11-10T09:06:38.446Z,96376.34
2022-11-10T09:09:04.902Z,96376.78
2022-11-10T09:11:31.320Z,96378.50
2022-11-10T09:13:57.701Z,96383.88
2022-11-10T09:16:24.129Z,96386.56
2022-11-10T09:18:50.550Z,96379.47
2022-11-10T09:21:16.921Z,96376.63
2022-11-10T09:23:43.307Z,96376.25
2022-11-10T09:26:09.669Z,96382.38
2022-11-10T09:28:36.141Z,96382.38
2022-11-10T09:31:02.632Z,96386.44
2022-11-10T09:33:28.991Z,96385.44
2022-11-10T09:35:59.596Z,96384.88
2022-11-10T09:38:26.153Z,96395.72
2022-11-10T09:41:03.252Z,96392.47
2022-11-10T09:43:42.008Z,96387.63
2022-11-10T09:46:21.174Z,96389.94
2022-11-10T09:48:50.928Z,96392.75
2022-11-10T09:51:22.054Z,96400.50
2022-11-10T09:53:59.342Z,96400.94
2022-11-10T09:56:33.385Z,96408.31
2022-11-10T09:59:00.250Z,96411.59
2022-11-10T10:01:38.168Z,96412.03
2022-11-10T10:04:16.183Z,96417.56
2022-11-10T10:07:09.718Z,96414.97
2022-11-10T10:09:42.260Z,96415.03
2022-11-10T10:12:14.977Z,96415.22
2022-11-10T10:14:48.285Z,96422.13
2022-11-10T10:17:26.926Z,96416.03
2022-11-10T10:19:59.615Z,96414.19
2022-11-10T10:22:29.003Z,96424.59
2022-11-10T10:25:00.300Z,96414.06
2022-11-10T10:27:27.164Z,96427.91
2022-11-10T10:29:53.626Z,96426.53
2022-11-10T10:32:21.672Z,96430.81
2022-11-10T10:34:48.269Z,96437.13
2022-11-10T10:37:18.905Z,96436.09
2022-11-10T10:39:48.862Z,96434.06
2022-11-10T10:42:27.478Z,96436.34
2022-11-10T10:45:13.550Z,96436.59
2022-11-10T10:47:40.278Z,96436.84
2022-11-10T10:50:35.946Z,96436.25
2022-11-10T10:53:16.012Z,96440.19
2022-11-10T10:56:01.728Z,96445.03
2022-11-10T10:58:28.186Z,96447.28
2022-11-10T11:00:54.583Z,96452.19
2022-11-10T11:03:25.723Z,96454.84
2022-11-10T11:06:02.599Z,96458.13
2022-11-10T11:08:29.055Z,96457.09
2022-11-10T11:10:55.527Z,96469.28
2022-11-10T11:13:26.166Z,96470.69
2022-11-10T11:15:59.991Z,96466.22
2022-11-10T11:18:27.676Z,96464.78
2022-11-10T11:21:02.628Z,96467.44
2022-11-10T11:23:28.974Z,96460.13
2022-11-10T11:25:58.374Z,96466.81
2022-11-10T11:28:43.545Z,96468.22
2022-11-10T11:31:12.933Z,96465.56
2022-11-10T11:33:47.686Z,96462.53
2022-11-10T11:36:32.696Z,96467.44
2022-11-10T11:39:07.944Z,96465.63
2022-11-10T11:41:52.963Z,96473.16
2022-11-10T11:44:25.863Z,96473.16
2022-11-10T11:47:11.091Z,96475.81
2022-11-10T11:49:37.494Z,96477.47
2022-11-10T11:52:22.645Z,96472.53
2022-11-10T11:55:00.697Z,96488.06
2022-11-10T11:57:46.021Z,96487.88
2022-11-10T12:00:15.484Z,96487.88
2022-11-10T12:02:52.989Z,96486.22
2022-11-10T12:05:38.242Z,96480.47
2022-11-10T12:08:11.381Z,96491.91
2022-11-10T12:10:47.212Z,96491.06
2022-11-10T12:13:36.272Z,96490.72
2022-11-10T12:16:23.598Z,96488.22
2022-11-10T12:18:56.106Z,96496.56
2022-11-10T12:21:28.350Z,96505.78
2022-11-10T12:24:09.777Z,96490.13
2022-11-10T12:26:45.678Z,96496.50
2022-11-10T12:29:18.184Z,96490.81
2022-11-10T12:31:45.931Z,96496.16
2022-11-10T12:34:12.292Z,96501.69
2022-11-10T12:36:39.185Z,96499.44
2022-11-10T12:39:26.338Z,96508.75
2022-11-10T12:41:55.986Z,96512.03
2022-11-10T12:44:32.155Z,96531.22
2022-11-10T12:47:01.152Z,96520.84
2022-11-10T12:49:36.540Z,96520.25
2022-11-10T12:52:03.037Z,96524.78
2022-11-10T12:54:29.695Z,96522.72
2022-11-10T12:57:02.030Z,96529.88
2022-11-10T12:59:30.285Z,96530.66
2022-11-10T13:02:06.136Z,96539.84
2022-11-10T13:04:33.277Z,96528.81
2022-11-10T13:07:02.328Z,96533.72
2022-11-10T13:09:36.606Z,96523.75
2022-11-10T13:12:17.005Z,96529.66
2022-11-10T13:14:44.483Z,96529.28
2022-11-10T13:17:30.916Z,96527.25
2022-11-10T13:20:05.218Z,96534.19
2022-11-10T13:22:44.789Z,96534.63
2022-11-10T13:25:29.809Z,96531.16
2022-11-10T13:27:56.243Z,96533.78
2022-11-10T13:30:43.648Z,96536.09
2022-11-10T13:33:25.305Z,96546.31
2022-11-10T13:35:58.293Z,96556.28
2022-11-10T13:38:38.144Z,96558.72
2022-11-10T13:41:13.377Z,96560.56
2022-11-10T13:43:47.570Z,96556.00
2022-11-10T13:46:14.284Z,96567.19
2022-11-10T13:48:40.617Z,96571.91
2022-11-10T13:51:21.578Z,96566.81
2022-11-10T13:54:06.789Z,96565.59
2022-11-10T13:56:33.139Z,96576.97
2022-11-10T13:58:59.877Z,96589.13
2022-11-10T14:01:29.021Z,96583.16
2022-11-10T14:03:57.448Z,96586.19
2022-11-10T14:06:44.258Z,96584.81
2022-11-10T14:09:10.672Z,96592.75
2022-11-10T14:11:40.405Z,96585.00
2022-11-10T14:14:17.059Z,96590.72
2022-11-10T14:16:43.605Z,96591.97
2022-11-10T14:19:21.322Z,96600.16
2022-11-10T14:21:54.037Z,96613.66
2022-11-10T14:24:28.784Z,96606.34
2022-11-10T14:26:57.734Z,96607.63
2022-11-10T14:29:24.085Z,96610.91
2022-11-10T14:31:50.633Z,96609.28
2022-11-10T14:34:18.154Z,96610.09
2022-11-10T14:36:51.934Z,96620.50
2022-11-10T14:39:19.574Z,96624.78
2022-11-10T14:41:47.457Z,96625.63
2022-11-10T14:44:20.031Z,96626.44
2022-11-10T14:46:46.416Z,96628.81
2022-11-10T14:49:12.793Z,96623.34
2022-11-10T14:51:40.214Z,96623.50
2022-11-10T14:54:11.234Z,96624.16
2022-11-10T14:56:37.841Z,96635.38
2022-11-10T14:59:06.261Z,96638.88
2022-11-10T15:01:33.995Z,96642.69
2022-11-10T15:04:05.131Z,96650.00
2022-11-10T15:06:32.336Z,96654.13
2022-11-10T15:08:58.932Z,96658.16
2022-11-10T15:11:51.644Z,96655.31
2022-11-10T15:14:30.206Z,96666.25
2022-11-10T15:17:02.398Z,96667.91
2022-11-10T15:19:35.409Z,96672.88
2022-11-10T15:22:31.061Z,96677.50
2022-11-10T15:25:00.018Z,96672.47
2022-11-10T15:27:26.554Z,96692.88
2022-11-10T15:29:53.533Z,96693.69
2022-11-10T15:32:21.571Z,96687.75
2022-11-10T15:34:49.105Z,96688.38
2022-11-10T15:37:27.438Z,96693.28
2022-11-10T15:40:15.402Z,96694.94
2022-11-10T15:42:41.853Z,96696.56
2022-11-10T15:45:08.407Z,96698.59
2022-11-10T15:47:34.914Z,96707.94
2022-11-10T15:50:01.974Z,96712.63
2022-11-10T15:52:28.818Z,96711.31
2022-11-10T15:54:55.244Z,96720.78
2022-11-10T15:57:22.238Z,96725.19
2022-11-10T15:59:48.615Z,96723.78
2022-11-10T16:02:18.766Z,96731.38
2022-11-10T16:04:45.163Z,96733.00
2022-11-10T16:07:11.597Z,96729.72
2022-11-10T16:09:38.117Z,96738.69
2022-11-10T16:12:04.570Z,96731.28
2022-11-10T16:14:30.955Z,96735.97
2022-11-10T16:16:57.373Z,96749.38
2022-11-10T16:19:23.754Z,96746.72
2022-11-10T16:21:50.132Z,96744.84
2022-11-10T16:24:16.521Z,96751.50
2022-11-10T16:26:42.990Z,96762.84
2022-11-10T16:29:10.999Z,96763.59
2022-11-10T16:31:38.364Z,96770.81
2022-11-10T16:34:04.808Z,96767.72
2022-11-10T16:36:33.152Z,96774.56
2022-11-10T16:39:03.738Z,96768.19
2022-11-10T16:41:30.131Z,96771.91
2022-11-10T16:43:56.496Z,96774.66
2022-11-10T16:46:24.689Z,96776.00
2022-11-10T16:48:52.701Z,96781.88
2022-11-10T16:51:25.564Z,96794.53
2022-11-10T16:53:53.136Z,96796.44
2022-11-10T16:56:21.416Z,96797.03
2022-11-10T16:58:47.778Z,96798.97
2022-11-10T17:01:19.834Z,96795.22
2022-11-10T17:03:51.291Z,96812.22
2022-11-10T17:06:18.435Z,96812.59
2022-11-10T17:08:46.571Z,96816.28
2022-11-10T17:11:12.934Z,96815.88
2022-11-10T17:13:39.411Z,96810.84
2022-11-10T17:16:07.802Z,96825.06
2022-11-10T17:18:35.141Z,96824.13
2022-11-10T17:21:03.044Z,96821.19
2022-11-10T17:23:29.446Z,96831.81
2022-11-10T17:25:55.977Z,96834.50
2022-11-10T17:28:22.448Z,96835.16
2022-11-10T17:30:48.893Z,96841.81
2022-11-10T17:33:15.380Z,96855.69
2022-11-10T17:35:49.479Z,96854.41
2022-11-10T17:38:19.998Z,96870.41
2022-11-10T17:40:46.384Z,96881.84
2022-11-10T17:43:13.625Z,96885.97
2022-11-10T17:45:40.159Z,96880.56
2022-11-10T17:48:07.097Z,96881.22
2022-11-10T17:50:34.437Z,96891.44
2022-11-10T17:53:01.456Z,96901.50
2022-11-10T17:55:33.800Z,96904.16
2022-11-10T17:58:00.734Z,96904.69
2022-11-10T18:00:27.119Z,96897.72
2022-11-10T18:02:55.449Z,96897.91
2022-11-10T18:05:22.047Z,96899.09
2022-11-10T18:07:51.716Z,96904.19
2022-11-10T18:10:18.585Z,96909.13
2022-11-10T18:12:45.214Z,96908.44
2022-11-10T18:15:15.544Z,96916.53
2022-11-10T18:17:42.229Z,96921.63
2022-11-10T18:20:09.558Z,96914.56
2022-11-10T18:22:36.437Z,96920.00
2022-11-10T18:25:02.932Z,96922.81
2022-11-10T18:27:29.378Z,96913.06
2022-11-10T18:29:55.797Z,96916.38
2022-11-10T18:32:23.340Z,96915.22
2022-11-10T18:34:50.065Z,96922.13
2022-11-10T18:37:17.029Z,96919.66
2022-11-10T18:39:43.564Z,96918.84
2022-11-10T18:42:09.975Z,96921.13
2022-11-10T18:44:37.065Z,96919.66
2022-11-10T18:47:04.126Z,96920.19
2022-11-10T18:49:30.551Z,96918.84
2022-11-10T18:51:57.392Z,96925.94
2022-11-10T18:54:23.941Z,96933.34
2022-11-10T18:56:50.875Z,96936.81
2022-11-10T18:59:17.266Z,96930.22
2022-11-10T19:01:43.726Z,96939.47
2022-11-10T19:04:10.657Z,96948.50
2022-11-10T19:06:37.120Z,96942.75
2022-11-10T19:09:06.640Z,96946.22
2022-11-10T19:11:33.933Z,96953.44
2022-11-10T19:14:03.074Z,96956.25
2022-11-10T19:16:30.084Z,96951.94
2022-11-10T19:18:57.146Z,96961.84
2022-11-10T19:21:24.575Z,96963.31
2022-11-10T19:23:54.326Z,96962.31
2022-11-10T19:26:22.846Z,96966.63
2022-11-10T19:28:49.601Z,96982.44
2022-11-10T19:31:17.352Z,96976.66
2022-11-10T19:33:45.107Z,96982.91
2022-11-10T19:36:13.645Z,96985.38
2022-11-10T19:38:40.657Z,96985.06
2022-11-10T19:41:08.523Z,96990.00
2022-11-10T19:43:34.940Z,96986.09
2022-11-10T19:46:02.928Z,96988.72
2022-11-10T19:48:32.809Z,96994.13
2022-11-10T19:51:00.321Z,96991.66
2022-11-10T19:53:26.820Z,96991.97
2022-11-10T19:55:53.367Z,96994.94
2022-11-10T19:58:19.782Z,97000.88
2022-11-10T20:00:47.475Z,96998.25
2022-11-10T20:03:14.088Z,97008.31
2022-11-10T20:05:40.993Z,97014.41
2022-11-10T20:08:11.452Z,97004.03
2022-11-10T20:10:39.293Z,97006.16
2022-11-10T20:13:05.949Z,97010.59
2022-11-10T20:15:32.454Z,97019.97
2022-11-10T20:17:58.886Z,97006.47
2022-11-10T20:20:25.309Z,97013.22
2022-11-10T20:22:51.698Z,97011.94
2022-11-10T20:25:18.081Z,97014.41
2022-11-10T20:27:44.544Z,97012.22
2022-11-10T20:30:11.023Z,97016.03
2022-11-10T20:32:37.402Z,97012.41
2022-11-10T20:35:03.988Z,97006.16
2022-11-10T20:37:33.463Z,97013.41
2022-11-10T20:40:00.052Z,97012.72
2022-11-10T20:42:26.536Z,97006.28
2022-11-10T20:44:52.912Z,97011.38
2022-11-10T20:47:19.340Z,97010.44
2022-11-10T20:49:45.794Z,97019.00
2022-11-10T20:52:12.206Z,97012.06
2022-11-10T20:54:38.681Z,97025.91
2022-11-10T20:57:05.124Z,97030.84
2022-11-10T20:59:31.494Z,97035.31
2022-11-10T21:01:57.957Z,97046.66
2022-11-10T21:04:24.362Z,97039.75
2022-11-10T21:06:50.789Z,97045.00
2022-11-10T21:09:17.209Z,97048.63
2022-11-10T21:12:02.071Z,97049.63
2022-11-10T21:14:28.483Z,97055.72
2022-11-10T21:16:56.845Z,97060.00
2022-11-10T21:19:23.320Z,97065.09
2022-11-10T21:21:51.067Z,97060.50
2022-11-10T21:24:17.508Z,97071.72
2022-11-10T21:26:43.894Z,97068.75
2022-11-10T21:29:11.646Z,97061.81
2022-11-10T21:31:38.169Z,97075.50
2022-11-10T21:34:04.630Z,97073.38
2022-11-10T21:36:31.707Z,97079.47
2022-11-10T21:38:58.797Z,97075.84
2022-11-10T21:41:25.792Z,97081.78
2022-11-10T21:43:52.192Z,97077.66
2022-11-10T21:46:18.804Z,97075.72
2022-11-10T21:48:45.206Z,97068.44
2022-11-10T21:51:12.510Z,97073.41
2022-11-10T21:53:42.379Z,97077.53
2022-11-10T21:56:10.263Z,97075.06
2022-11-10T21:58:36.880Z,97074.19
2022-11-10T22:01:03.992Z,97074.38
2022-11-10T22:03:30.990Z,97080.16
2022-11-10T22:06:43.899Z,97070.44
2022-11-10T22:09:10.343Z,97077.66
2022-11-10T22:11:55.596Z,97081.09
2022-11-10T22:14:40.579Z,97083.38
2022-11-10T22:17:31.963Z,97087.81
2022-11-10T22:19:58.358Z,97088.81
2022-11-10T22:22:24.742Z,97070.69
2022-11-10T22:24:51.134Z,97080.56
2022-11-10T22:27:17.525Z,97093.53
2022-11-10T22:29:43.877Z,97095.19
2022-11-10T22:32:10.248Z,97085.47
2022-11-10T22:34:36.621Z,97096.03
2022-11-10T22:37:03.079Z,97083.84
2022-11-10T22:39:49.534Z,97080.22
2022-11-10T22:42:34.548Z,97081.06
2022-11-10T22:45:01.030Z,97080.06
2022-11-10T22:47:47.393Z,97092.38
2022-11-10T22:50:13.783Z,97081.22
2022-11-10T22:52:40.459Z,97088.13
2022-11-10T22:55:07.004Z,97089.59
2022-11-10T22:57:33.365Z,97087.13
2022-11-10T22:59:59.720Z,97086.59
2022-11-10T23:02:26.077Z,97092.38
2022-11-10T23:04:52.514Z,97089.72
2022-11-10T23:07:18.955Z,97089.41
2022-11-10T23:09:47.188Z,97087.75
2022-11-10T23:12:13.606Z,97094.00
2022-11-10T23:14:39.996Z,97100.59
2022-11-10T23:17:06.389Z,97101.88
2022-11-10T23:19:32.781Z,97103.47
2022-11-10T23:21:59.172Z,97099.38
2022-11-10T23:24:25.534Z,97103.47
2022-11-10T23:26:51.939Z,97106.78
2022-11-10T23:29:18.317Z,97108.75
2022-11-10T23:31:44.727Z,97105.97
2022-11-10T23:34:11.140Z,97106.78
2022-11-10T23:36:37.747Z,97111.03
2022-11-10T23:39:04.124Z,97107.75
2022-11-10T23:41:30.506Z,97113.81
2022-11-10T23:43:56.856Z,97107.75
2022-11-10T23:46:23.235Z,97106.41
2022-11-10T23:48:49.638Z,97112.50
2022-11-10T23:51:16.226Z,97110.66
2022-11-10T23:53:42.795Z,97110.50
2022-11-10T23:56:11.192Z,97118.41
2022-11-10T23:58:37.968Z,97113.31
